createdAt,value
2022-10-25T00:02:36.766Z,0.60
2022-10-25T00:05:41.275Z,0.25
2022-10-25T00:08:43.696Z,0.63
2022-10-25T00:11:46.060Z,0.98
2022-10-25T00:14:48.412Z,0.43
2022-10-25T00:17:51.160Z,0.67
2022-10-25T00:20:53.879Z,0.82
2022-10-25T00:23:56.278Z,0.35
2022-10-25T00:26:58.628Z,1.20
2022-10-25T00:30:01.058Z,1.23
2022-10-25T00:33:03.463Z,0.40
2022-10-25T00:36:08.135Z,0.35
2022-10-25T00:39:10.557Z,0.75
2022-10-25T00:42:24.145Z,0.60
2022-10-25T00:45:28.521Z,0.67
2022-10-25T00:48:31.151Z,0.30
2022-10-25T00:51:38.975Z,0.98
2022-10-25T00:54:48.878Z,0.65
2022-10-25T00:58:08.499Z,0.52
2022-10-25T01:01:11.176Z,0.20
2022-10-25T01:04:17.430Z,0.37
2022-10-25T01:07:19.813Z,0.50
2022-10-25T01:10:22.137Z,1.17
2022-10-25T01:13:24.552Z,1.35
2022-10-25T01:16:34.691Z,0.40
2022-10-25T01:19:59.068Z,0.20
2022-10-25T01:23:19.938Z,0.30
2022-10-25T01:26:49.554Z,0.43
2022-10-25T01:30:18.875Z,0.35
2022-10-25T01:33:28.163Z,0.40
2022-10-25T01:36:51.424Z,0.57
2022-10-25T01:40:02.882Z,0.32
2022-10-25T01:43:26.574Z,0.30
2022-10-25T01:46:34.737Z,0.30
2022-10-25T01:50:12.893Z,0.73
2022-10-25T01:53:15.508Z,0.37
2022-10-25T01:56:27.534Z,0.57
2022-10-25T01:59:47.720Z,0.45
2022-10-25T02:03:15.036Z,0.50
2022-10-25T02:06:29.615Z,0.70
2022-10-25T02:13:28.370Z,0.85
2022-10-25T02:16:42.623Z,0.52
2022-10-25T02:19:53.132Z,0.40
2022-10-25T02:22:57.581Z,0.37
2022-10-25T02:26:02.316Z,0.43
2022-10-25T02:29:06.437Z,0.47
2022-10-25T02:32:08.815Z,0.47
2022-10-25T02:35:18.904Z,0.65
2022-10-25T02:38:21.349Z,0.80
2022-10-25T02:41:23.804Z,0.30
2022-10-25T02:44:26.117Z,0.20
2022-10-25T02:47:28.597Z,0.73
2022-10-25T02:50:31.036Z,0.50
2022-10-25T02:53:34.387Z,0.53
2022-10-25T02:56:38.231Z,0.80
2022-10-25T02:59:40.704Z,0.20
2022-10-25T03:02:43.372Z,0.40
2022-10-25T03:05:45.744Z,0.30
2022-10-25T03:08:48.350Z,0.20
2022-10-25T03:11:50.641Z,0.63
2022-10-25T03:14:53.207Z,0.57
2022-10-25T03:17:55.619Z,1.00
2022-10-25T03:20:59.891Z,0.20
2022-10-25T03:24:02.239Z,0.63
2022-10-25T03:27:04.547Z,0.40
2022-10-25T03:30:07.507Z,0.95
2022-10-25T03:33:10.362Z,0.20
2022-10-25T03:36:12.812Z,0.32
2022-10-25T03:39:15.132Z,0.77
2022-10-25T03:42:17.542Z,0.50
2022-10-25T03:45:20.136Z,0.60
2022-10-25T03:48:22.636Z,0.22
2022-10-25T03:51:25.047Z,0.20
2022-10-25T03:54:29.212Z,0.30
2022-10-25T03:57:33.029Z,0.63
2022-10-25T04:00:35.662Z,0.20
2022-10-25T04:03:38.162Z,1.00
2022-10-25T04:06:40.495Z,0.30
2022-10-25T04:09:42.892Z,0.20
2022-10-25T04:12:46.292Z,0.40
2022-10-25T04:15:48.745Z,0.93
2022-10-25T04:18:53.328Z,0.30
2022-10-25T04:21:55.700Z,0.32
2022-10-25T04:24:58.015Z,0.30
2022-10-25T04:28:00.505Z,0.30
2022-10-25T04:31:03.554Z,0.35
2022-10-25T04:34:05.950Z,0.65
2022-10-25T04:37:08.396Z,0.38
2022-10-25T04:40:11.849Z,0.53
2022-10-25T04:43:14.203Z,0.67
2022-10-25T04:46:16.661Z,0.93
2022-10-25T04:49:19.130Z,0.50
2022-10-25T04:52:21.672Z,0.57
2022-10-25T04:55:24.025Z,0.40
2022-10-25T04:58:30.422Z,0.20
2022-10-25T05:01:34.061Z,0.60
2022-10-25T05:04:36.414Z,0.20
2022-10-25T05:07:38.750Z,0.70
2022-10-25T05:10:41.188Z,0.43
2022-10-25T05:13:45.131Z,0.33
2022-10-25T05:16:47.505Z,0.30
2022-10-25T05:19:49.981Z,0.60
2022-10-25T05:22:53.851Z,0.90
2022-10-25T05:26:14.976Z,0.70
2022-10-25T05:29:17.305Z,0.40
2022-10-25T05:32:19.642Z,0.73
2022-10-25T05:35:22.036Z,0.38
2022-10-25T05:38:24.417Z,0.30
2022-10-25T05:41:27.665Z,1.87
2022-10-25T05:44:30.049Z,0.50
2022-10-25T05:47:32.363Z,0.80
2022-10-25T05:50:34.840Z,0.55
2022-10-25T05:53:37.388Z,0.40
2022-10-25T05:56:40.547Z,0.60
2022-10-25T05:59:42.909Z,1.43
2022-10-25T06:02:45.647Z,0.55
2022-10-25T06:05:49.693Z,0.43
2022-10-25T06:08:59.717Z,0.40
2022-10-25T06:12:03.878Z,0.57
2022-10-25T06:15:09.313Z,0.40
2022-10-25T06:18:11.722Z,0.20
2022-10-25T06:21:19.888Z,0.30
2022-10-25T06:24:22.388Z,0.57
2022-10-25T06:27:24.686Z,0.60
2022-10-25T06:30:27.082Z,0.57
2022-10-25T06:33:30.482Z,0.30
2022-10-25T06:36:32.836Z,0.40
2022-10-25T06:39:35.144Z,0.57
2022-10-25T06:42:38.456Z,0.70
2022-10-25T06:45:42.200Z,0.60
2022-10-25T06:48:44.632Z,0.50
2022-10-25T06:51:46.943Z,0.80
2022-10-25T06:54:49.273Z,0.50
2022-10-25T06:57:55.668Z,0.43
2022-10-25T07:01:02.559Z,0.50
2022-10-25T07:04:05.208Z,0.30
2022-10-25T07:07:07.577Z,0.35
2022-10-25T07:10:10.067Z,0.30
2022-10-25T07:13:12.706Z,0.47
2022-10-25T07:16:17.683Z,0.50
2022-10-25T07:19:20.120Z,0.50
2022-10-25T07:22:22.393Z,0.63
2022-10-25T07:25:24.715Z,0.40
2022-10-25T07:28:27.751Z,1.13
2022-10-25T07:31:35.983Z,0.30
2022-10-25T07:34:38.305Z,0.63
2022-10-25T07:37:40.747Z,0.55
2022-10-25T07:40:43.490Z,0.38
2022-10-25T07:43:45.961Z,0.47
2022-10-25T07:46:50.118Z,0.30
2022-10-25T07:49:52.951Z,0.40
2022-10-25T07:52:57.729Z,0.52
2022-10-25T07:56:03.661Z,0.60
2022-10-25T07:59:06.080Z,0.30
2022-10-25T08:02:11.951Z,0.50
2022-10-25T08:05:14.387Z,0.40
2022-10-25T08:08:16.886Z,0.70
2022-10-25T08:11:19.355Z,0.40
2022-10-25T08:17:25.540Z,0.30
2022-10-25T08:20:43.306Z,0.32
2022-10-25T08:23:51.069Z,0.52
2022-10-25T08:26:53.442Z,0.45
2022-10-25T08:29:55.872Z,0.60
2022-10-25T08:32:58.825Z,0.30
2022-10-25T08:36:02.665Z,0.20
2022-10-25T08:39:05.309Z,0.30
2022-10-25T08:42:15.866Z,0.40
2022-10-25T08:45:24.066Z,0.20
2022-10-25T08:48:32.963Z,0.30
2022-10-25T08:51:43.164Z,0.30
2022-10-25T08:54:46.800Z,0.60
2022-10-25T08:57:51.785Z,0.30
2022-10-25T09:00:58.678Z,0.40
2022-10-25T09:04:01.445Z,0.30
2022-10-25T09:07:03.820Z,0.30
2022-10-25T09:10:26.469Z,0.30
2022-10-25T09:13:49.898Z,0.30
2022-10-25T09:16:56.362Z,0.40
2022-10-25T09:20:17.187Z,0.40
2022-10-25T09:23:28.673Z,0.30
2022-10-25T09:26:54.145Z,0.38
2022-10-25T09:30:13.243Z,0.40
2022-10-25T09:33:20.887Z,0.30
2022-10-25T09:36:33.483Z,0.30
2022-10-25T09:39:41.572Z,0.45
2022-10-25T09:42:50.400Z,0.32
2022-10-25T09:45:57.021Z,0.30
2022-10-25T09:49:15.171Z,0.30
2022-10-25T09:52:46.237Z,0.27
2022-10-25T09:55:54.644Z,0.43
2022-10-25T09:59:01.220Z,0.30
2022-10-25T10:02:03.910Z,0.35
2022-10-25T10:05:13.292Z,0.20
2022-10-25T10:08:16.076Z,0.30
2022-10-25T10:11:20.251Z,0.40
2022-10-25T10:14:36.276Z,0.30
2022-10-25T10:17:38.637Z,0.30
2022-10-25T10:21:10.322Z,0.40
2022-10-25T10:24:34.878Z,0.33
2022-10-25T10:27:37.236Z,0.30
2022-10-25T10:30:39.927Z,0.30
2022-10-25T10:33:51.548Z,0.28
2022-10-25T10:37:12.219Z,0.30
2022-10-25T10:40:17.758Z,0.30
2022-10-25T10:43:32.473Z,0.20
2022-10-25T10:46:34.951Z,0.30
2022-10-25T10:49:42.832Z,0.30
2022-10-25T10:52:46.423Z,0.30
2022-10-25T10:55:53.852Z,0.30
2022-10-25T10:58:56.280Z,0.20
2022-10-25T11:02:11.914Z,0.40
2022-10-25T11:05:29.413Z,0.30
2022-10-25T11:08:31.850Z,0.40
2022-10-25T11:11:34.295Z,0.30
2022-10-25T11:14:37.089Z,0.40
2022-10-25T11:17:58.290Z,0.20
2022-10-25T11:21:13.017Z,0.28
2022-10-25T11:24:30.483Z,0.40
2022-10-25T11:28:05.943Z,0.20
2022-10-25T11:31:26.423Z,0.30
2022-10-25T11:34:28.683Z,0.20
2022-10-25T11:37:43.850Z,0.20
2022-10-25T11:41:18.235Z,0.30
2022-10-25T11:44:45.716Z,0.40
2022-10-25T11:47:58.088Z,0.40
2022-10-25T11:51:38.018Z,0.43
2022-10-25T11:55:02.332Z,0.28
2022-10-25T11:58:26.532Z,0.40
2022-10-25T12:01:45.075Z,0.40
2022-10-25T12:05:02.563Z,0.30
2022-10-25T12:08:31.144Z,0.30
2022-10-25T12:11:55.110Z,0.30
2022-10-25T12:15:00.687Z,0.30
2022-10-25T12:18:06.337Z,0.23
2022-10-25T12:21:12.446Z,0.30
2022-10-25T12:24:20.740Z,0.30
2022-10-25T12:27:24.649Z,0.30
2022-10-25T12:30:27.813Z,0.30
2022-10-25T12:33:32.937Z,0.40
2022-10-25T12:36:38.052Z,0.28
2022-10-25T12:39:42.797Z,0.20
2022-10-25T12:42:50.331Z,0.40
2022-10-25T12:46:09.142Z,0.20
2022-10-25T12:49:37.772Z,0.30
2022-10-25T12:52:55.365Z,0.28
2022-10-25T12:56:12.823Z,0.43
2022-10-25T12:59:18.229Z,0.30
2022-10-25T13:02:58.411Z,0.30
2022-10-25T13:06:26.905Z,0.63
2022-10-25T13:09:32.443Z,0.30
2022-10-25T13:12:34.877Z,0.30
2022-10-25T13:15:48.839Z,0.30
2022-10-25T13:22:54.848Z,0.30
2022-10-25T13:25:57.262Z,0.35
2022-10-25T13:29:24.322Z,0.30
2022-10-25T13:32:31.224Z,0.30
2022-10-25T13:35:39.329Z,1.23
2022-10-25T13:38:41.901Z,0.30
2022-10-25T13:41:47.576Z,0.38
2022-10-25T13:45:02.929Z,0.30
2022-10-25T13:48:14.511Z,0.30
2022-10-25T13:51:17.877Z,0.27
2022-10-25T13:54:20.354Z,0.40
2022-10-25T13:57:55.615Z,0.47
2022-10-25T14:01:18.290Z,0.57
2022-10-25T14:04:34.994Z,0.30
2022-10-25T14:07:40.903Z,0.20
2022-10-25T14:10:43.773Z,0.30
2022-10-25T14:13:55.141Z,0.20
2022-10-25T14:17:12.661Z,0.40
2022-10-25T14:20:25.966Z,0.38
2022-10-25T14:23:33.337Z,0.33
2022-10-25T14:26:35.808Z,0.20
2022-10-25T14:29:38.849Z,0.25
2022-10-25T14:32:52.425Z,0.30
2022-10-25T14:36:25.855Z,0.30
2022-10-25T14:39:30.918Z,0.20
2022-10-25T14:42:33.545Z,0.30
2022-10-25T14:45:36.035Z,0.35
2022-10-25T14:48:39.567Z,0.47
2022-10-25T14:51:44.094Z,0.22
2022-10-25T14:54:53.655Z,0.30
2022-10-25T14:57:58.449Z,0.30
2022-10-25T15:01:04.789Z,0.50
2022-10-25T15:04:07.451Z,0.30
2022-10-25T15:07:25.293Z,0.22
2022-10-25T15:10:30.486Z,0.30
2022-10-25T15:13:44.101Z,0.30
2022-10-25T15:16:49.829Z,0.30
2022-10-25T15:20:06.327Z,0.57
2022-10-25T15:23:19.526Z,0.20
2022-10-25T15:26:30.443Z,0.30
2022-10-25T15:29:42.267Z,0.20
2022-10-25T15:32:44.907Z,0.20
2022-10-25T15:35:51.191Z,0.55
2022-10-25T15:39:08.167Z,0.50
2022-10-25T15:42:15.254Z,0.30
2022-10-25T15:45:18.022Z,0.20
2022-10-25T15:48:22.783Z,0.40
2022-10-25T15:51:28.784Z,0.52
2022-10-25T15:54:34.515Z,0.28
2022-10-25T15:57:36.873Z,0.20
2022-10-25T16:00:39.516Z,0.77
2022-10-25T16:03:42.114Z,0.57
2022-10-25T16:06:45.180Z,0.40
2022-10-25T16:09:47.655Z,0.88
2022-10-25T16:12:59.507Z,0.67
2022-10-25T16:16:11.774Z,0.40
2022-10-25T16:19:26.333Z,0.40
2022-10-25T16:22:28.670Z,0.45
2022-10-25T16:25:33.155Z,0.90
2022-10-25T16:28:35.774Z,0.80
2022-10-25T16:31:38.128Z,0.73
2022-10-25T16:34:42.614Z,0.80
2022-10-25T16:37:45.295Z,0.60
2022-10-25T16:40:48.466Z,0.60
2022-10-25T16:43:51.336Z,0.60
2022-10-25T16:46:53.919Z,0.70
2022-10-25T16:49:57.500Z,0.98
2022-10-25T16:53:02.647Z,1.05
2022-10-25T16:56:05.520Z,0.70
2022-10-25T16:59:08.030Z,1.30
2022-10-25T17:02:17.573Z,2.03
2022-10-25T17:05:26.616Z,1.33
2022-10-25T17:08:29.026Z,1.15
2022-10-25T17:11:31.392Z,2.95
2022-10-25T17:14:34.009Z,1.77
2022-10-25T17:17:36.665Z,1.10
2022-10-25T17:20:39.033Z,1.00
2022-10-25T17:23:42.400Z,1.08
2022-10-25T17:26:45.033Z,1.55
2022-10-25T17:29:47.862Z,1.93
2022-10-25T17:32:50.540Z,2.00
2022-10-25T17:35:53.050Z,1.90
2022-10-25T17:38:55.798Z,3.78
2022-10-25T17:41:58.486Z,2.75
2022-10-25T17:45:01.006Z,3.37
2022-10-25T17:48:04.331Z,2.50
2022-10-25T17:51:09.497Z,2.25
2022-10-25T17:54:12.100Z,2.60
2022-10-25T17:57:14.521Z,1.77
2022-10-25T18:00:16.924Z,2.00
2022-10-25T18:03:19.229Z,0.87
2022-10-25T18:06:24.520Z,0.82
2022-10-25T18:09:27.164Z,1.15
2022-10-25T18:12:30.366Z,1.08
2022-10-25T18:15:35.115Z,0.63
2022-10-25T18:18:38.750Z,1.37
2022-10-25T18:21:41.638Z,1.15
2022-10-25T18:24:44.256Z,0.82
2022-10-25T18:27:47.086Z,0.60
2022-10-25T18:30:49.828Z,1.07
2022-10-25T18:33:55.194Z,0.60
2022-10-25T18:36:57.557Z,0.95
2022-10-25T18:39:59.927Z,1.20
2022-10-25T18:43:02.586Z,1.08
2022-10-25T18:46:05.409Z,0.80
2022-10-25T18:49:08.069Z,0.60
2022-10-25T18:52:10.726Z,1.42
2022-10-25T18:55:13.602Z,0.90
2022-10-25T18:58:16.557Z,0.77
2022-10-25T19:01:23.955Z,0.80
2022-10-25T19:04:27.779Z,0.63
2022-10-25T19:07:30.222Z,1.05
2022-10-25T19:10:35.901Z,0.40
2022-10-25T19:13:39.392Z,0.85
2022-10-25T19:16:42.424Z,0.40
2022-10-25T19:19:45.094Z,0.30
2022-10-25T19:22:48.008Z,0.40
2022-10-25T19:25:50.584Z,1.42
2022-10-25T19:29:00.926Z,0.43
2022-10-25T19:32:03.740Z,0.40
2022-10-25T19:35:06.451Z,0.57
2022-10-25T19:38:09.064Z,0.85
2022-10-25T19:41:15.860Z,0.40
2022-10-25T19:44:18.664Z,0.50
2022-10-25T19:47:21.197Z,0.60
2022-10-25T19:50:23.982Z,0.63
2022-10-25T19:53:26.668Z,1.00
2022-10-25T19:56:29.108Z,0.43
2022-10-25T19:59:32.297Z,0.50
2022-10-25T20:02:35.035Z,0.30
2022-10-25T20:05:37.474Z,0.30
2022-10-25T20:08:40.816Z,0.40
2022-10-25T20:11:43.326Z,0.82
2022-10-25T20:14:45.969Z,0.63
2022-10-25T20:17:48.891Z,3.67
2022-10-25T20:20:57.628Z,2.57
2022-10-25T20:24:04.272Z,2.35
2022-10-25T20:27:06.882Z,0.43
2022-10-25T20:30:09.609Z,0.85
2022-10-25T20:33:12.178Z,0.30
2022-10-25T20:36:15.573Z,0.63
2022-10-25T20:39:18.295Z,0.52
2022-10-25T20:42:20.784Z,0.45
2022-10-25T20:45:28.383Z,0.20
2022-10-25T20:48:31.343Z,1.10
2022-10-25T20:51:34.411Z,0.20
2022-10-25T20:54:36.692Z,0.50
2022-10-25T20:57:40.368Z,0.43
2022-10-25T21:00:43.137Z,0.30
2022-10-25T21:03:45.519Z,0.57
2022-10-25T21:06:49.099Z,0.30
2022-10-25T21:09:51.567Z,0.50
2022-10-25T21:12:53.873Z,0.85
2022-10-25T21:15:56.435Z,0.22
2022-10-25T21:19:02.587Z,0.33
2022-10-25T21:22:05.098Z,0.30
2022-10-25T21:25:08.124Z,0.88
2022-10-25T21:28:10.483Z,0.30
2022-10-25T21:31:15.608Z,0.20
2022-10-25T21:37:25.244Z,0.30
2022-10-25T21:40:27.604Z,0.20
2022-10-25T21:43:30.012Z,0.40
2022-10-25T21:46:32.382Z,0.20
2022-10-25T21:49:34.846Z,0.33
2022-10-25T21:52:37.316Z,0.50
2022-10-25T21:55:39.841Z,0.80
2022-10-25T21:58:45.153Z,0.30
2022-10-25T22:01:48.270Z,0.20
2022-10-25T22:04:50.764Z,0.50
2022-10-25T22:07:53.732Z,0.40
2022-10-25T22:11:01.331Z,0.20
2022-10-25T22:14:05.961Z,0.20
2022-10-25T22:17:08.949Z,0.20
2022-10-25T22:20:11.624Z,0.30
2022-10-25T22:23:14.003Z,0.30
2022-10-25T22:26:19.116Z,0.28
2022-10-25T22:29:21.565Z,0.20
2022-10-25T22:32:23.983Z,0.45
2022-10-25T22:35:26.305Z,0.37
2022-10-25T22:38:28.944Z,0.40
2022-10-25T22:41:31.372Z,0.25
2022-10-25T22:44:33.783Z,0.20
2022-10-25T22:47:36.176Z,0.20
2022-10-25T22:50:38.501Z,0.30
2022-10-25T22:53:41.387Z,0.20
2022-10-25T22:56:43.677Z,0.22
2022-10-25T22:59:46.363Z,0.40
2022-10-25T23:02:48.911Z,0.22
2022-10-25T23:06:01.668Z,0.60
2022-10-25T23:09:07.101Z,0.40
2022-10-25T23:12:09.440Z,0.20
2022-10-25T23:15:11.767Z,0.20
2022-10-25T23:18:14.054Z,0.28
2022-10-25T23:21:23.191Z,0.20
2022-10-25T23:24:25.576Z,0.20
2022-10-25T23:27:31.017Z,0.32
2022-10-25T23:30:37.312Z,0.38
2022-10-25T23:33:41.732Z,0.20
2022-10-25T23:36:44.197Z,0.30
2022-10-25T23:39:46.599Z,0.20
2022-10-25T23:42:48.947Z,0.40
2022-10-25T23:45:51.300Z,0.30
2022-10-25T23:48:53.652Z,0.20
2022-10-25T23:51:55.999Z,0.20
2022-10-25T23:54:58.376Z,0.40
2022-10-25T23:58:00.755Z,0.20
